ZBTJ/TSN METAR and TAF weather

Enter ICAO airport designator
Station Type Date Time Source
ZBTJ METAR 2021/07/29 18:30 UTC NOAA

ZBTJ 291830Z 01007MPS 4500 -RA BR BKN006 OVC040 21/21 Q0994 NOSIG


Station Type Date Time Source
ZBTJ Decoded METAR 2021/07/29 18:30 UTC NOAA

Tianjin / Zhangguizhu, China (ZBTJ) 39-11N 117-21E
Jul 29, 2021 - 02:30 PM EDT / 2021.07.29 1830 UTC
Wind: from the N (010 degrees) at 16 MPH (14 KT):0
Visibility: 2 mile(s):0
Sky conditions: overcast
Weather: light rain; mist
Temperature: 69 F (21 C)
Dew Point: 69 F (21 C)
Relative Humidity: 100%
Pressure (altimeter): 29.35 in. Hg (0994 hPa)
ob: ZBTJ 291830Z 01007MPS 4500 -RA BR BKN006 OVC040 21/21 Q0994 NOSIG
cycle: 18

Station Type Date Time Source
ZBTJ TAF 2021/07/29 18:03 UTC NOAA

TAF ZBTJ 291514Z 2918/3018 03008G14MPS 3000 -RA BR BKN010 OVC033 TX27/3006Z TN22/2921Z
BECMG 3000/3001 34007MPS 6000
BECMG 3009/3010 32002MPS

Example: see airport list